createdAt,value
2019-02-09T00:00:00.633Z,99.90
2019-02-09T00:01:11.444Z,99.90
2019-02-09T00:02:17.845Z,99.90
2019-02-09T00:03:24.286Z,99.90
2019-02-09T00:04:31.455Z,99.90
2019-02-09T00:05:38.198Z,99.90
2019-02-09T00:06:45.783Z,99.90
2019-02-09T00:07:52.155Z,99.90
2019-02-09T00:08:58.758Z,99.90
2019-02-09T00:10:06.625Z,99.90
2019-02-09T00:11:13.126Z,99.90
2019-02-09T00:12:19.805Z,99.90
2019-02-09T00:13:26.111Z,99.90
2019-02-09T00:14:33.072Z,99.90
2019-02-09T00:15:39.546Z,99.90
2019-02-09T00:16:45.974Z,99.90
2019-02-09T00:17:52.192Z,99.90
2019-02-09T00:18:58.417Z,99.90
2019-02-09T00:20:04.826Z,99.90
2019-02-09T00:21:11.092Z,99.90
2019-02-09T00:22:17.372Z,99.90
2019-02-09T00:23:23.711Z,99.90
2019-02-09T00:24:30.021Z,99.90
2019-02-09T00:25:36.642Z,99.90
2019-02-09T00:26:43.061Z,99.90
2019-02-09T00:27:49.602Z,99.90
2019-02-09T00:28:56.104Z,99.90
2019-02-09T00:30:02.623Z,99.90
2019-02-09T00:31:08.997Z,99.90
2019-02-09T00:32:15.535Z,99.90
2019-02-09T00:33:21.955Z,99.90
2019-02-09T00:34:28.438Z,99.90
2019-02-09T00:35:34.951Z,99.90
2019-02-09T00:36:41.305Z,99.90
2019-02-09T00:37:47.730Z,99.90
2019-02-09T00:38:54.228Z,99.90
2019-02-09T00:40:00.353Z,99.90
2019-02-09T00:41:06.586Z,99.90
2019-02-09T00:42:12.854Z,99.90
2019-02-09T00:43:19.211Z,99.90
2019-02-09T00:44:25.543Z,99.90
2019-02-09T00:45:31.955Z,99.90
2019-02-09T00:46:38.382Z,99.90
2019-02-09T00:47:44.728Z,99.90
2019-02-09T00:48:51.086Z,99.90
2019-02-09T00:49:57.670Z,99.90
2019-02-09T00:51:03.994Z,99.90
2019-02-09T00:52:10.241Z,99.90
2019-02-09T00:53:16.631Z,99.90
2019-02-09T00:54:23.083Z,99.90
2019-02-09T00:55:29.652Z,99.90
2019-02-09T00:56:35.971Z,99.90
2019-02-09T00:57:42.334Z,99.90
2019-02-09T00:58:48.704Z,99.90
2019-02-09T00:59:54.996Z,99.90
2019-02-09T01:01:01.432Z,99.90
2019-02-09T01:02:07.883Z,99.90
2019-02-09T01:03:14.838Z,99.90
2019-02-09T01:04:21.305Z,99.90
2019-02-09T01:05:30.887Z,99.90
2019-02-09T01:06:37.262Z,99.90
2019-02-09T01:07:43.643Z,99.90
2019-02-09T01:08:49.987Z,99.90
2019-02-09T01:09:56.455Z,99.90
2019-02-09T01:11:04.206Z,99.90
2019-02-09T01:12:10.723Z,99.90
2019-02-09T01:13:17.084Z,99.90
2019-02-09T01:14:23.420Z,99.90
2019-02-09T01:15:29.866Z,99.90
2019-02-09T01:16:36.135Z,99.90
2019-02-09T01:17:42.375Z,99.90
2019-02-09T01:18:48.703Z,99.90
2019-02-09T01:19:55.087Z,99.90
2019-02-09T01:21:01.377Z,99.90
2019-02-09T01:22:07.695Z,99.90
2019-02-09T01:23:14.168Z,99.90
2019-02-09T01:24:20.674Z,99.90
2019-02-09T01:25:27.030Z,99.90
2019-02-09T01:26:33.242Z,99.90
2019-02-09T01:27:39.503Z,99.90
2019-02-09T01:28:45.739Z,99.90
2019-02-09T01:29:52.101Z,99.90
2019-02-09T01:30:58.372Z,99.90
2019-02-09T01:32:06.143Z,99.90
2019-02-09T01:33:12.513Z,99.90
2019-02-09T01:34:18.755Z,99.90
2019-02-09T01:35:25.434Z,99.90
2019-02-09T01:36:31.776Z,99.90
2019-02-09T01:37:38.238Z,99.90
2019-02-09T01:38:44.541Z,99.90
2019-02-09T01:39:50.895Z,99.90
2019-02-09T01:40:57.649Z,99.90
2019-02-09T01:42:04.254Z,99.90
2019-02-09T01:43:10.614Z,99.90
2019-02-09T01:44:18.301Z,99.90
2019-02-09T01:45:29.201Z,99.90
2019-02-09T01:46:35.751Z,99.90
2019-02-09T01:47:41.974Z,99.90
2019-02-09T01:48:48.407Z,99.90
2019-02-09T01:49:54.846Z,99.90
2019-02-09T01:51:01.132Z,99.90
2019-02-09T01:52:07.630Z,99.90
2019-02-09T01:53:14.053Z,99.90
2019-02-09T01:54:20.497Z,99.90
2019-02-09T01:55:28.320Z,99.90
2019-02-09T01:56:34.777Z,99.90
2019-02-09T01:57:41.315Z,99.90
2019-02-09T01:58:47.566Z,99.90
2019-02-09T01:59:54.064Z,99.90
2019-02-09T02:01:02.599Z,99.90
2019-02-09T02:02:09.028Z,99.90
2019-02-09T02:03:15.491Z,99.90
2019-02-09T02:04:21.897Z,99.90
2019-02-09T02:05:28.555Z,99.90
2019-02-09T02:06:35.123Z,99.90
2019-02-09T02:07:41.592Z,99.90
2019-02-09T02:08:48.045Z,99.90
2019-02-09T02:09:54.413Z,99.90
2019-02-09T02:11:00.853Z,99.90
2019-02-09T02:12:07.742Z,99.90
2019-02-09T02:13:14.235Z,99.90
2019-02-09T02:14:20.613Z,99.90
2019-02-09T02:15:27.742Z,99.90
2019-02-09T02:16:34.195Z,99.90
2019-02-09T02:17:40.518Z,99.90
2019-02-09T02:18:46.900Z,99.90
2019-02-09T02:19:53.294Z,99.90
2019-02-09T02:20:59.672Z,99.90
2019-02-09T02:22:06.073Z,99.90
2019-02-09T02:23:12.400Z,99.90
2019-02-09T02:24:18.791Z,99.90
2019-02-09T02:25:25.421Z,99.90
2019-02-09T02:26:31.870Z,99.90
2019-02-09T02:27:38.253Z,99.90
2019-02-09T02:28:44.631Z,99.90
2019-02-09T02:29:51.080Z,99.90
2019-02-09T02:30:57.517Z,99.90
2019-02-09T02:32:03.828Z,99.90
2019-02-09T02:33:10.320Z,99.90
2019-02-09T02:34:17.104Z,99.90
2019-02-09T02:35:23.547Z,99.90
2019-02-09T02:36:30.777Z,99.90
2019-02-09T02:37:37.152Z,99.90
2019-02-09T02:38:43.558Z,99.90
2019-02-09T02:39:49.850Z,99.90
2019-02-09T02:40:56.153Z,99.90
2019-02-09T02:42:02.571Z,99.90
2019-02-09T02:43:08.804Z,99.90
2019-02-09T02:44:15.110Z,99.90
2019-02-09T02:45:21.973Z,99.90
2019-02-09T02:46:28.466Z,99.90
2019-02-09T02:47:34.913Z,99.90
2019-02-09T02:48:41.342Z,99.90
2019-02-09T02:49:47.567Z,99.90
2019-02-09T02:50:54.096Z,99.90
2019-02-09T02:52:00.451Z,99.90
2019-02-09T02:53:06.802Z,99.90
2019-02-09T02:54:13.141Z,99.90
2019-02-09T02:55:21.551Z,99.90
2019-02-09T02:56:27.825Z,99.90
2019-02-09T02:57:34.058Z,99.90
2019-02-09T02:58:40.505Z,99.90
2019-02-09T02:59:46.962Z,99.90
2019-02-09T03:00:53.326Z,99.90
2019-02-09T03:01:59.582Z,99.90
2019-02-09T03:03:06.411Z,99.90
2019-02-09T03:04:13.940Z,99.90
2019-02-09T03:05:21.492Z,99.90
2019-02-09T03:06:27.873Z,99.90
2019-02-09T03:07:34.100Z,99.90
2019-02-09T03:08:40.342Z,99.90
2019-02-09T03:09:46.734Z,99.90
2019-02-09T03:10:52.989Z,99.90
2019-02-09T03:11:59.425Z,99.90
2019-02-09T03:13:06.057Z,99.90
2019-02-09T03:14:12.443Z,99.90
2019-02-09T03:15:27.567Z,99.90
2019-02-09T03:16:34.202Z,99.90
2019-02-09T03:17:40.562Z,99.90
2019-02-09T03:18:46.990Z,99.90
2019-02-09T03:19:53.339Z,99.90
2019-02-09T03:20:59.654Z,99.90
2019-02-09T03:22:06.596Z,99.90
2019-02-09T03:23:13.117Z,99.90
2019-02-09T03:24:19.499Z,99.90
2019-02-09T03:25:27.699Z,99.90
2019-02-09T03:26:34.149Z,99.90
2019-02-09T03:27:40.580Z,99.90
2019-02-09T03:28:46.959Z,99.90
2019-02-09T03:29:53.322Z,99.90
2019-02-09T03:30:59.554Z,99.90
2019-02-09T03:32:06.098Z,99.90
2019-02-09T03:33:12.702Z,99.90
2019-02-09T03:34:19.098Z,99.90
2019-02-09T03:35:25.610Z,99.90
2019-02-09T03:36:32.097Z,99.90
2019-02-09T03:37:38.624Z,99.90
2019-02-09T03:38:45.073Z,99.90
2019-02-09T03:39:51.553Z,99.90
2019-02-09T03:40:57.865Z,99.90
2019-02-09T03:42:04.538Z,99.90
2019-02-09T03:43:10.876Z,99.90
2019-02-09T03:44:17.214Z,99.90
2019-02-09T03:45:28.431Z,99.90
2019-02-09T03:46:34.766Z,99.90
2019-02-09T03:47:41.104Z,99.90
2019-02-09T03:48:47.586Z,99.90
2019-02-09T03:49:53.993Z,99.90
2019-02-09T03:51:00.515Z,99.90
2019-02-09T03:52:06.885Z,99.90
2019-02-09T03:53:13.215Z,99.90
2019-02-09T03:54:19.605Z,99.90
2019-02-09T03:55:25.998Z,99.90
2019-02-09T03:56:32.409Z,99.90
2019-02-09T03:57:38.714Z,99.90
2019-02-09T03:58:45.005Z,99.90
2019-02-09T03:59:51.591Z,99.90
2019-02-09T04:00:57.985Z,99.90
2019-02-09T04:02:04.450Z,99.90
2019-02-09T04:03:11.048Z,99.90
2019-02-09T04:04:17.285Z,99.90
2019-02-09T04:05:23.854Z,99.90
2019-02-09T04:06:30.210Z,99.90
2019-02-09T04:07:36.633Z,99.90
2019-02-09T04:08:43.249Z,99.90
2019-02-09T04:09:49.543Z,99.90
2019-02-09T04:10:55.973Z,99.90
2019-02-09T04:12:02.375Z,99.90
2019-02-09T04:13:08.847Z,99.90
2019-02-09T04:14:15.109Z,99.90
2019-02-09T04:15:22.794Z,99.90
2019-02-09T04:16:29.413Z,99.90
2019-02-09T04:17:35.805Z,99.90
2019-02-09T04:18:42.329Z,99.90
2019-02-09T04:19:48.603Z,99.90
2019-02-09T04:20:54.853Z,99.90
2019-02-09T04:22:01.138Z,99.90
2019-02-09T04:23:07.596Z,99.90
2019-02-09T04:24:13.922Z,99.90
2019-02-09T04:25:20.960Z,99.90
2019-02-09T04:26:27.460Z,99.90
2019-02-09T04:27:33.785Z,99.90
2019-02-09T04:28:40.732Z,99.90
2019-02-09T04:29:47.278Z,99.90
2019-02-09T04:30:53.515Z,99.90
2019-02-09T04:32:00.000Z,99.90
2019-02-09T04:33:06.510Z,99.90
2019-02-09T04:34:13.100Z,99.90
2019-02-09T04:35:19.519Z,99.90
2019-02-09T04:36:26.889Z,99.90
2019-02-09T04:37:33.170Z,99.90
2019-02-09T04:38:39.508Z,99.90
2019-02-09T04:39:46.031Z,99.90
2019-02-09T04:40:52.264Z,99.90
2019-02-09T04:41:58.744Z,99.90
2019-02-09T04:43:04.968Z,99.90
2019-02-09T04:44:11.223Z,99.90
2019-02-09T04:45:17.778Z,99.90
2019-02-09T04:46:24.069Z,99.90
2019-02-09T04:47:30.595Z,99.90
2019-02-09T04:48:37.051Z,99.90
2019-02-09T04:49:43.406Z,99.90
2019-02-09T04:50:49.746Z,99.90
2019-02-09T04:51:56.094Z,99.90
2019-02-09T04:53:02.692Z,99.90
2019-02-09T04:54:09.233Z,99.90
2019-02-09T04:55:20.474Z,99.90
2019-02-09T04:56:26.643Z,99.90
2019-02-09T04:57:32.920Z,99.90
2019-02-09T04:58:39.800Z,99.90
2019-02-09T04:59:46.288Z,99.90
2019-02-09T05:00:53.518Z,99.90
2019-02-09T05:01:59.841Z,99.90
2019-02-09T05:03:06.520Z,99.90
2019-02-09T05:04:12.863Z,99.90
2019-02-09T05:05:19.344Z,99.90
2019-02-09T05:06:25.777Z,99.90
2019-02-09T05:07:32.141Z,99.90
2019-02-09T05:08:38.402Z,99.90
2019-02-09T05:09:44.862Z,99.90
2019-02-09T05:10:51.231Z,99.90
2019-02-09T05:11:57.487Z,99.90
2019-02-09T05:13:04.045Z,99.90
2019-02-09T05:14:10.682Z,99.90
2019-02-09T05:15:17.782Z,99.80
2019-02-09T05:16:24.120Z,99.60
2019-02-09T05:17:30.570Z,99.50
2019-02-09T05:18:38.255Z,99.60
2019-02-09T05:19:44.594Z,99.60
2019-02-09T05:20:51.114Z,99.60
2019-02-09T05:21:57.404Z,99.60
2019-02-09T05:23:03.770Z,99.60
2019-02-09T05:24:10.151Z,99.60
2019-02-09T05:25:17.037Z,99.60
2019-02-09T05:26:23.697Z,99.70
2019-02-09T05:27:31.579Z,99.80
2019-02-09T05:28:37.938Z,99.80
2019-02-09T05:29:44.305Z,99.70
2019-02-09T05:30:50.901Z,99.90
2019-02-09T05:31:57.437Z,99.60
2019-02-09T05:33:04.077Z,99.50
2019-02-09T05:34:10.631Z,99.30
2019-02-09T05:35:17.596Z,99.40
2019-02-09T05:36:23.975Z,99.50
2019-02-09T05:37:30.402Z,99.50
2019-02-09T05:38:37.556Z,99.50
2019-02-09T05:39:43.839Z,99.40
2019-02-09T05:40:50.312Z,99.30
2019-02-09T05:41:57.373Z,99.40
2019-02-09T05:43:03.674Z,99.40
2019-02-09T05:44:09.940Z,99.30
2019-02-09T05:45:20.680Z,99.40
2019-02-09T05:46:27.310Z,99.50
2019-02-09T05:47:33.831Z,99.40
2019-02-09T05:48:40.207Z,99.30
2019-02-09T05:49:46.544Z,99.30
2019-02-09T05:50:53.248Z,99.30
2019-02-09T05:51:59.454Z,99.20
2019-02-09T05:53:05.975Z,99.30
2019-02-09T05:54:12.294Z,99.30
2019-02-09T05:55:19.043Z,99.30
2019-02-09T05:56:25.628Z,99.40
2019-02-09T05:57:31.972Z,99.30
2019-02-09T05:58:38.442Z,99.20
2019-02-09T05:59:44.711Z,99.30
2019-02-09T06:00:51.164Z,99.30
2019-02-09T06:01:57.745Z,99.20
2019-02-09T06:03:03.985Z,99.30
2019-02-09T06:04:10.416Z,99.50
2019-02-09T06:05:16.966Z,99.30
2019-02-09T06:06:23.704Z,99.30
2019-02-09T06:07:30.155Z,99.30
2019-02-09T06:08:36.457Z,99.20
2019-02-09T06:09:42.826Z,99.20
2019-02-09T06:10:49.110Z,99.30
2019-02-09T06:11:55.533Z,99.30
2019-02-09T06:13:01.802Z,99.40
2019-02-09T06:14:08.127Z,99.30
2019-02-09T06:15:15.993Z,99.20
2019-02-09T06:16:22.283Z,99.30
2019-02-09T06:17:28.576Z,99.30
2019-02-09T06:18:34.874Z,99.20
2019-02-09T06:19:41.142Z,99.00
2019-02-09T06:20:47.522Z,98.90
2019-02-09T06:21:54.148Z,99.00
2019-02-09T06:23:00.626Z,99.00
2019-02-09T06:24:07.291Z,98.90
2019-02-09T06:25:13.874Z,99.00
2019-02-09T06:26:20.046Z,98.90
2019-02-09T06:27:26.423Z,98.90
2019-02-09T06:28:32.933Z,98.90
2019-02-09T06:29:39.278Z,98.80
2019-02-09T06:30:45.819Z,98.90
2019-02-09T06:31:53.313Z,98.90
2019-02-09T06:33:00.179Z,98.80
2019-02-09T06:34:06.739Z,98.70
2019-02-09T06:35:13.406Z,98.70
2019-02-09T06:36:19.837Z,98.50
2019-02-09T06:37:26.429Z,98.50
2019-02-09T06:38:32.812Z,98.50
2019-02-09T06:39:39.247Z,98.30
2019-02-09T06:40:45.591Z,98.20
2019-02-09T06:41:51.802Z,98.30
2019-02-09T06:42:58.404Z,98.30
2019-02-09T06:44:04.663Z,98.30
2019-02-09T06:45:13.912Z,98.20
2019-02-09T06:46:20.129Z,98.20
2019-02-09T06:47:26.515Z,98.40
2019-02-09T06:48:32.917Z,98.20
2019-02-09T06:49:39.185Z,98.00
2019-02-09T06:50:46.653Z,98.00
2019-02-09T06:51:53.076Z,98.00
2019-02-09T06:52:59.445Z,97.80
2019-02-09T06:54:06.398Z,97.70
2019-02-09T06:55:15.203Z,97.80
2019-02-09T06:56:21.688Z,97.70
2019-02-09T06:57:28.237Z,97.50
2019-02-09T06:58:34.910Z,97.40
2019-02-09T06:59:41.932Z,97.30
2019-02-09T07:00:48.405Z,97.40
2019-02-09T07:01:54.799Z,97.40
2019-02-09T07:03:01.252Z,97.40
2019-02-09T07:04:07.779Z,97.20
2019-02-09T07:05:16.970Z,97.30
2019-02-09T07:06:24.775Z,97.10
2019-02-09T07:07:31.437Z,97.00
2019-02-09T07:08:38.096Z,97.10
2019-02-09T07:09:44.377Z,97.10
2019-02-09T07:10:50.825Z,97.10
2019-02-09T07:11:57.442Z,97.40
2019-02-09T07:13:04.052Z,96.90
2019-02-09T07:14:12.277Z,97.10
2019-02-09T07:15:23.151Z,96.70
2019-02-09T07:16:29.845Z,96.60
2019-02-09T07:17:45.697Z,96.80
2019-02-09T07:18:52.380Z,96.70
2019-02-09T07:20:01.310Z,96.70
2019-02-09T07:21:09.842Z,96.50
2019-02-09T07:22:16.449Z,96.40
2019-02-09T07:23:22.751Z,96.20
2019-02-09T07:24:29.138Z,96.10
2019-02-09T07:25:36.565Z,95.80
2019-02-09T07:26:43.086Z,95.40
2019-02-09T07:27:49.503Z,95.00
2019-02-09T07:28:56.098Z,94.60
2019-02-09T07:30:03.294Z,94.50
2019-02-09T07:31:09.926Z,94.40
2019-02-09T07:32:16.475Z,94.20
2019-02-09T07:33:22.873Z,94.20
2019-02-09T07:34:29.386Z,94.20
2019-02-09T07:35:35.751Z,93.90
2019-02-09T07:36:42.183Z,93.90
2019-02-09T07:37:49.444Z,94.20
2019-02-09T07:38:56.329Z,93.60
2019-02-09T07:40:02.916Z,93.90
2019-02-09T07:41:09.119Z,94.20
2019-02-09T07:42:15.685Z,94.30
2019-02-09T07:43:22.049Z,94.50
2019-02-09T07:44:30.213Z,94.40
2019-02-09T07:45:36.845Z,94.10
2019-02-09T07:46:43.241Z,94.20
2019-02-09T07:47:49.804Z,94.20
2019-02-09T07:48:56.255Z,94.00
2019-02-09T07:50:02.407Z,93.90
2019-02-09T07:51:08.841Z,93.80
2019-02-09T07:52:15.475Z,93.70
2019-02-09T07:53:21.932Z,93.50
2019-02-09T07:54:29.805Z,93.30
2019-02-09T07:55:37.258Z,93.10
2019-02-09T07:56:43.651Z,92.90
2019-02-09T07:57:50.926Z,93.10
2019-02-09T07:58:57.017Z,93.10
2019-02-09T08:00:03.083Z,92.80
2019-02-09T08:01:09.440Z,92.90
2019-02-09T08:02:15.785Z,93.10
2019-02-09T08:03:22.154Z,93.20
2019-02-09T08:04:28.548Z,93.10
2019-02-09T08:05:35.314Z,92.70
2019-02-09T08:06:41.577Z,92.70
2019-02-09T08:07:48.114Z,92.60
2019-02-09T08:08:54.674Z,92.60
2019-02-09T08:10:01.015Z,92.30
2019-02-09T08:11:09.104Z,92.50
2019-02-09T08:12:16.096Z,92.10
2019-02-09T08:13:22.670Z,92.00
2019-02-09T08:14:29.080Z,91.90
2019-02-09T08:15:35.894Z,92.40
2019-02-09T08:16:42.243Z,92.20
2019-02-09T08:17:48.893Z,92.40
2019-02-09T08:18:55.327Z,92.20
2019-02-09T08:20:02.242Z,92.30
2019-02-09T08:21:08.654Z,92.00
2019-02-09T08:22:16.111Z,92.10
2019-02-09T08:23:22.429Z,92.10
2019-02-09T08:24:28.917Z,91.80
2019-02-09T08:25:36.264Z,91.90
2019-02-09T08:26:43.017Z,91.90
2019-02-09T08:27:49.506Z,91.70
2019-02-09T08:28:56.015Z,91.70
2019-02-09T08:30:02.422Z,91.50
2019-02-09T08:31:08.871Z,91.20
2019-02-09T08:32:15.511Z,91.40
2019-02-09T08:33:22.053Z,91.50
2019-02-09T08:34:28.650Z,91.30
2019-02-09T08:35:34.993Z,91.50
2019-02-09T08:36:41.621Z,91.30
2019-02-09T08:37:48.324Z,91.50
2019-02-09T08:38:54.755Z,91.30
2019-02-09T08:40:01.342Z,91.20
2019-02-09T08:41:08.892Z,91.00
2019-02-09T08:42:17.438Z,90.80
2019-02-09T08:43:24.415Z,90.80
2019-02-09T08:44:30.769Z,90.80
2019-02-09T08:45:37.626Z,90.60
2019-02-09T08:46:44.113Z,90.70
2019-02-09T08:47:51.430Z,90.70
2019-02-09T08:48:57.892Z,91.00
2019-02-09T08:50:05.154Z,90.80
2019-02-09T08:51:13.673Z,90.80
2019-02-09T08:52:19.984Z,90.80
2019-02-09T08:53:26.252Z,90.90
2019-02-09T08:54:32.986Z,91.30
2019-02-09T08:55:39.514Z,90.80
2019-02-09T08:56:45.885Z,91.00
2019-02-09T08:57:52.211Z,91.20
2019-02-09T08:58:58.532Z,91.00
2019-02-09T09:00:06.943Z,90.60
2019-02-09T09:01:13.270Z,90.70
2019-02-09T09:02:20.812Z,90.90
2019-02-09T09:03:27.632Z,91.00
2019-02-09T09:04:34.307Z,91.00
2019-02-09T09:05:40.799Z,90.60
2019-02-09T09:06:47.232Z,90.30
2019-02-09T09:07:53.678Z,90.30
2019-02-09T09:09:00.005Z,90.40
2019-02-09T09:10:07.239Z,90.50
2019-02-09T09:11:14.121Z,90.30
2019-02-09T09:12:20.398Z,90.30
2019-02-09T09:13:26.965Z,90.30
2019-02-09T09:14:33.505Z,90.00
2019-02-09T09:15:42.758Z,89.90
2019-02-09T09:16:49.138Z,89.30
2019-02-09T09:17:55.427Z,89.40
2019-02-09T09:19:01.973Z,89.80
2019-02-09T09:20:13.662Z,89.60
2019-02-09T09:21:20.150Z,88.80
2019-02-09T09:22:26.394Z,89.30
2019-02-09T09:23:32.880Z,88.60
2019-02-09T09:24:39.238Z,88.70
2019-02-09T09:25:45.627Z,88.70
2019-02-09T09:26:52.034Z,88.70
2019-02-09T09:27:58.509Z,88.40
2019-02-09T09:29:04.864Z,88.60
2019-02-09T09:30:13.219Z,88.50
2019-02-09T09:31:19.610Z,88.80
2019-02-09T09:32:28.857Z,88.50
2019-02-09T09:33:35.465Z,88.10
2019-02-09T09:34:42.380Z,88.00
2019-02-09T09:35:48.625Z,88.60
2019-02-09T09:36:54.997Z,88.40
2019-02-09T09:38:01.563Z,87.80
2019-02-09T09:39:09.973Z,87.70
2019-02-09T09:40:19.693Z,87.90
2019-02-09T09:41:26.096Z,87.90
2019-02-09T09:42:32.457Z,88.50
2019-02-09T09:43:39.851Z,87.70
2019-02-09T09:44:46.192Z,88.10
2019-02-09T09:45:52.505Z,88.30
2019-02-09T09:46:58.934Z,87.70
2019-02-09T09:48:06.077Z,87.90
2019-02-09T09:49:13.975Z,88.00
2019-02-09T09:50:21.604Z,88.60
2019-02-09T09:51:27.786Z,88.20
2019-02-09T09:52:34.114Z,88.30
2019-02-09T09:53:40.332Z,88.40
2019-02-09T09:54:46.703Z,88.50
2019-02-09T09:55:53.046Z,88.60
2019-02-09T09:56:59.307Z,88.30
2019-02-09T09:58:06.574Z,88.00
2019-02-09T09:59:16.413Z,88.40
2019-02-09T10:00:23.254Z,88.30
2019-02-09T10:01:30.751Z,88.50
2019-02-09T10:02:36.956Z,88.20
2019-02-09T10:03:43.152Z,88.60
2019-02-09T10:04:49.411Z,88.40
2019-02-09T10:05:55.880Z,87.90
2019-02-09T10:07:02.254Z,88.40
2019-02-09T10:08:09.444Z,87.70
2019-02-09T10:09:15.671Z,87.10
2019-02-09T10:10:23.147Z,87.50
2019-02-09T10:11:29.522Z,87.90
2019-02-09T10:12:35.901Z,88.00
2019-02-09T10:13:42.308Z,87.90
2019-02-09T10:14:48.457Z,87.90
2019-02-09T10:15:56.236Z,87.50
2019-02-09T10:17:02.576Z,87.30
2019-02-09T10:18:09.284Z,87.60
2019-02-09T10:19:15.643Z,87.70
2019-02-09T10:20:23.618Z,88.00
2019-02-09T10:21:30.005Z,87.40
2019-02-09T10:22:36.456Z,87.90
2019-02-09T10:23:45.329Z,86.80
2019-02-09T10:24:51.787Z,86.80
2019-02-09T10:25:57.820Z,86.50
2019-02-09T10:27:04.311Z,86.80
2019-02-09T10:28:10.934Z,87.40
2019-02-09T10:29:17.351Z,87.10
2019-02-09T10:30:25.665Z,87.10
2019-02-09T10:31:31.984Z,87.40
2019-02-09T10:32:44.269Z,87.20
2019-02-09T10:33:46.477Z,86.80
2019-02-09T10:34:53.060Z,86.50
2019-02-09T10:35:59.380Z,86.80
2019-02-09T10:37:05.843Z,87.20
2019-02-09T10:38:12.002Z,87.00
2019-02-09T10:39:18.739Z,87.50
2019-02-09T10:40:27.395Z,86.90
2019-02-09T10:41:34.999Z,87.30
2019-02-09T10:42:41.403Z,86.80
2019-02-09T10:43:48.350Z,86.80
2019-02-09T10:44:54.605Z,87.00
2019-02-09T10:46:01.072Z,86.70
2019-02-09T10:47:07.662Z,87.40
2019-02-09T10:48:14.085Z,87.10
2019-02-09T10:49:20.335Z,86.50
2019-02-09T10:50:31.839Z,86.50
2019-02-09T10:51:38.411Z,85.90
2019-02-09T10:52:44.724Z,86.30
2019-02-09T10:53:51.007Z,86.50
2019-02-09T10:54:57.447Z,86.30
2019-02-09T10:56:03.655Z,86.90
2019-02-09T10:57:10.242Z,86.90
2019-02-09T10:58:17.030Z,86.50
2019-02-09T10:59:23.522Z,86.00
2019-02-09T11:00:32.839Z,86.20
2019-02-09T11:01:39.370Z,86.70
2019-02-09T11:02:52.087Z,85.70
2019-02-09T11:03:53.677Z,85.90
2019-02-09T11:05:00.110Z,85.50
2019-02-09T11:06:06.733Z,85.60
2019-02-09T11:07:13.104Z,84.90
2019-02-09T11:08:19.471Z,85.10
2019-02-09T11:09:27.753Z,84.70
2019-02-09T11:10:34.215Z,84.80
2019-02-09T11:11:40.471Z,84.80
2019-02-09T11:12:47.095Z,84.60
2019-02-09T11:13:53.174Z,83.50
2019-02-09T11:14:59.432Z,83.20
2019-02-09T11:16:05.892Z,83.50
2019-02-09T11:17:12.245Z,82.80
2019-02-09T11:18:18.694Z,82.60
2019-02-09T11:19:25.104Z,82.40
2019-02-09T11:20:31.631Z,82.40
2019-02-09T11:21:37.855Z,82.20
2019-02-09T11:22:45.237Z,82.30
2019-02-09T11:23:51.528Z,81.90
2019-02-09T11:24:57.725Z,82.40
2019-02-09T11:26:04.006Z,82.50
2019-02-09T11:27:10.402Z,82.00
2019-02-09T11:28:17.095Z,82.20
2019-02-09T11:29:23.370Z,81.70
2019-02-09T11:30:30.193Z,81.90
2019-02-09T11:31:39.203Z,82.30
2019-02-09T11:32:45.617Z,82.20
2019-02-09T11:33:51.887Z,81.80
2019-02-09T11:34:58.661Z,82.30
2019-02-09T11:36:05.925Z,82.30
2019-02-09T11:37:12.763Z,82.20
2019-02-09T11:38:19.803Z,81.90
2019-02-09T11:39:26.304Z,82.50
2019-02-09T11:40:33.314Z,82.30
2019-02-09T11:41:39.840Z,83.00
2019-02-09T11:42:46.583Z,81.50
2019-02-09T11:43:53.179Z,81.60
2019-02-09T11:45:00.672Z,81.60
2019-02-09T11:46:08.031Z,81.40
2019-02-09T11:47:14.657Z,81.20
2019-02-09T11:48:22.157Z,81.70
2019-02-09T11:49:28.881Z,81.40
2019-02-09T11:50:36.202Z,81.60
2019-02-09T11:51:42.789Z,81.30
2019-02-09T11:52:50.049Z,81.20
2019-02-09T11:53:56.839Z,81.40
2019-02-09T11:55:04.974Z,81.60
2019-02-09T11:56:11.822Z,81.30
2019-02-09T11:57:18.656Z,81.60
2019-02-09T11:58:25.108Z,81.70
2019-02-09T11:59:31.814Z,81.20
2019-02-09T12:00:41.202Z,81.20
2019-02-09T12:01:47.719Z,81.90
2019-02-09T12:03:02.050Z,81.80
2019-02-09T12:04:02.842Z,81.60
2019-02-09T12:05:10.694Z,82.20
2019-02-09T12:06:18.189Z,82.10
2019-02-09T12:07:25.416Z,82.60
2019-02-09T12:08:32.123Z,82.90
2019-02-09T12:09:39.770Z,83.20
2019-02-09T12:10:46.380Z,83.00
2019-02-09T12:11:54.905Z,83.20
2019-02-09T12:13:02.025Z,82.60
2019-02-09T12:14:09.203Z,82.10
2019-02-09T12:15:19.363Z,82.60
2019-02-09T12:16:25.951Z,83.10
2019-02-09T12:17:33.368Z,82.90
2019-02-09T12:18:39.832Z,82.60
2019-02-09T12:19:47.833Z,83.00
2019-02-09T12:20:55.346Z,83.00
2019-02-09T12:22:04.054Z,83.10
2019-02-09T12:23:11.622Z,83.30
2019-02-09T12:24:19.381Z,83.00
2019-02-09T12:25:30.887Z,83.20
2019-02-09T12:26:37.536Z,83.20
2019-02-09T12:27:44.090Z,83.40
2019-02-09T12:28:51.363Z,82.80
2019-02-09T12:29:59.658Z,82.60
2019-02-09T12:31:06.659Z,83.10
2019-02-09T12:32:15.119Z,83.20
2019-02-09T12:33:23.425Z,83.70
2019-02-09T12:34:31.633Z,83.20
2019-02-09T12:35:39.692Z,83.20
2019-02-09T12:36:47.243Z,83.50
2019-02-09T12:37:54.361Z,82.90
2019-02-09T12:39:02.654Z,83.10
2019-02-09T12:40:11.711Z,83.30
2019-02-09T12:41:18.861Z,83.90
2019-02-09T12:42:25.821Z,84.10
2019-02-09T12:43:33.284Z,84.20
2019-02-09T12:44:40.322Z,84.10
2019-02-09T12:45:49.703Z,84.80
2019-02-09T12:46:58.039Z,84.60
2019-02-09T12:48:07.346Z,85.00
2019-02-09T12:49:14.663Z,84.80
2019-02-09T12:50:24.530Z,84.80
2019-02-09T12:51:31.758Z,84.90
2019-02-09T12:52:38.561Z,85.10
2019-02-09T12:53:47.341Z,84.70
2019-02-09T12:54:56.213Z,84.80
2019-02-09T12:56:04.215Z,85.20
2019-02-09T12:57:11.224Z,84.80
2019-02-09T12:58:18.312Z,84.90
2019-02-09T12:59:25.885Z,85.30
2019-02-09T13:00:35.027Z,84.60
2019-02-09T13:01:42.291Z,85.70
2019-02-09T13:02:49.270Z,84.80
2019-02-09T13:03:56.143Z,85.10
2019-02-09T13:05:02.755Z,85.70
2019-02-09T13:06:09.174Z,85.30
2019-02-09T13:07:17.260Z,85.70
2019-02-09T13:08:24.526Z,86.00
2019-02-09T13:09:32.956Z,86.70
2019-02-09T13:10:39.867Z,87.90
2019-02-09T13:11:46.585Z,87.90
2019-02-09T13:12:53.271Z,87.80
2019-02-09T13:14:00.454Z,87.80
2019-02-09T13:15:08.594Z,88.80
2019-02-09T13:16:15.992Z,90.10
2019-02-09T13:17:22.934Z,90.60
2019-02-09T13:18:29.222Z,91.40
2019-02-09T13:19:36.333Z,91.80
2019-02-09T13:20:44.322Z,92.20
2019-02-09T13:21:50.775Z,92.50
2019-02-09T13:22:58.274Z,93.10
2019-02-09T13:24:05.636Z,93.50
2019-02-09T13:25:12.397Z,93.70
2019-02-09T13:26:19.184Z,94.20
2019-02-09T13:27:25.924Z,94.70
2019-02-09T13:28:33.154Z,94.80
2019-02-09T13:29:39.367Z,95.00
2019-02-09T13:30:45.995Z,95.30
2019-02-09T13:31:52.842Z,96.00
2019-02-09T13:33:00.264Z,96.50
2019-02-09T13:34:08.152Z,97.10
2019-02-09T13:35:15.433Z,96.80
2019-02-09T13:36:22.356Z,97.30
2019-02-09T13:37:30.666Z,97.20
2019-02-09T13:38:38.202Z,97.20
2019-02-09T13:39:45.136Z,97.60
2019-02-09T13:40:51.851Z,97.10
2019-02-09T13:41:58.862Z,96.80
2019-02-09T13:43:06.194Z,97.00
2019-02-09T13:44:12.666Z,97.50
2019-02-09T13:45:27.752Z,97.30
2019-02-09T13:46:34.997Z,97.20
2019-02-09T13:47:52.695Z,97.30
2019-02-09T13:49:01.453Z,97.00
2019-02-09T13:50:12.490Z,96.90
2019-02-09T13:51:24.045Z,96.90
2019-02-09T13:52:31.019Z,96.90
2019-02-09T13:53:38.133Z,96.60
2019-02-09T13:54:45.331Z,96.80
2019-02-09T13:55:52.371Z,96.50
2019-02-09T13:57:01.198Z,96.20
2019-02-09T13:58:08.570Z,96.80
2019-02-09T13:59:15.557Z,96.60
2019-02-09T14:00:23.420Z,96.60
2019-02-09T14:01:30.773Z,96.70
2019-02-09T14:02:37.573Z,96.80
2019-02-09T14:03:46.829Z,96.10
2019-02-09T14:04:54.111Z,95.90
2019-02-09T14:06:08.016Z,96.20
2019-02-09T14:07:09.908Z,96.10
2019-02-09T14:08:17.111Z,96.10
2019-02-09T14:09:23.670Z,96.00
2019-02-09T14:10:30.594Z,95.80
2019-02-09T14:11:37.184Z,95.50
2019-02-09T14:12:43.600Z,95.80
2019-02-09T14:13:50.566Z,95.60
2019-02-09T14:14:58.188Z,95.50
2019-02-09T14:16:08.295Z,95.50
2019-02-09T14:17:14.088Z,95.80
2019-02-09T14:18:20.936Z,95.50
2019-02-09T14:19:28.101Z,95.50
2019-02-09T14:20:35.277Z,95.30